Time;durP1;ratioP1;P1;durP2;ratioP2;P2;SDS_P1;SDS_P2;PMS_P1;PMS_P2;Temp;Humidity;BMP_temperature;BMP_pressure;BME280_temperature;BME280_humidity;BME280_pressure;Samples;Min_cycle;Max_cycle;Signal;HPM_P1;HPM_P2
2021/12/17 00:04:53;;;;;;;71.82;7.75;;;9.90;99.90;;;;;;5098428;28;20108;-70
2021/12/17 00:07:21;;;;;;;16.23;7.10;;;10.10;99.90;;;;;;5103397;28;20083;-71
2021/12/17 00:09:49;;;;;;;17.67;7.07;;;10.20;99.90;;;;;;5106857;28;20051;-71
2021/12/17 00:12:18;;;;;;;19.27;8.05;;;9.60;99.90;;;;;;5084305;27;20055;-72
2021/12/17 00:14:48;;;;;;;23.85;8.55;;;9.20;99.90;;;;;;5106369;28;20050;-72
2021/12/17 00:17:20;;;;;;;32.83;10.10;;;9.50;99.90;;;;;;5104303;28;20146;-71
2021/12/17 00:52:55;;;;;;;25.08;10.40;;;9.90;99.90;;;;;;5005318;28;20057;-72
2021/12/17 00:55:21;;;;;;;25.27;9.90;;;9.80;99.90;;;;;;5079279;28;20055;-71
2021/12/17 00:57:47;;;;;;;24.63;10.45;;;9.20;99.90;;;;;;5088038;28;20542;-72
2021/12/17 01:00:17;;;;;;;24.42;9.55;;;9.60;99.90;;;;;;5099203;28;20048;-72
2021/12/17 01:02:44;;;;;;;24.13;9.60;;;9.80;99.90;;;;;;5104583;28;20051;-71
2021/12/17 01:05:23;;;;;;;21.58;8.60;;;9.70;99.90;;;;;;5101431;28;20145;-71
2021/12/17 01:07:52;;;;;;;22.30;8.93;;;8.70;99.90;;;;;;5104429;28;20051;-72
2021/12/17 01:10:41;;;;;;;25.15;9.27;;;9.70;99.90;;;;;;5103268;28;20056;-72
2021/12/17 01:13:08;;;;;;;20.08;8.55;;;9.90;99.90;;;;;;5105185;28;20154;-72
2021/12/17 01:15:35;;;;;;;22.48;8.35;;;9.50;99.90;;;;;;5104771;28;20044;-72
2021/12/17 01:18:07;;;;;;;20.48;7.60;;;8.70;99.90;;;;;;5103428;28;20114;-72
2021/12/17 01:20:54;;;;;;;21.00;7.43;;;9.00;99.90;;;;;;5105071;28;20043;-72
2021/12/17 01:36:32;;;;;;;12.15;5.00;;;8.40;99.90;;;;;;5119880;27;20139;-71
2021/12/17 01:42:00;;;;;;;9.55;5.03;;;9.30;99.90;;;;;;5108203;28;20410;-71
2021/12/17 01:44:26;;;;;;;8.68;3.85;;;9.30;99.90;;;;;;5108083;28;20032;-71
2021/12/17 01:46:53;;;;;;;8.32;3.95;;;9.20;99.90;;;;;;5090070;28;20473;-71
2021/12/17 02:00:33;;;;;;;7.45;3.50;;;8.50;99.90;;;;;;5098695;28;19977;-71
2021/12/17 02:03:00;;;;;;;7.15;3.75;;;8.50;99.90;;;;;;5106658;28;20039;-71
2021/12/17 02:05:26;;;;;;;8.25;3.67;;;9.70;99.90;;;;;;5105198;28;20043;-71
2021/12/17 02:07:55;;;;;;;7.38;3.80;;;8.80;99.90;;;;;;5109384;28;20407;-71
2021/12/17 02:31:59;;;;;;;11.93;4.30;;;9.30;99.90;;;;;;5107191;28;20048;-71
2021/12/17 02:36:57;;;;;;;10.23;4.00;;;9.50;99.90;;;;;;5102731;28;20410;-71
2021/12/17 02:47:23;;;;;;;9.48;4.43;;;8.60;99.90;;;;;;5102234;28;20048;-71
2021/12/17 02:49:49;;;;;;;7.68;3.63;;;8.50;99.90;;;;;;5087843;28;20039;-71
2021/12/17 02:52:16;;;;;;;7.30;3.97;;;8.30;99.90;;;;;;5103892;28;20128;-71
2021/12/17 02:54:42;;;;;;;8.98;3.85;;;8.30;99.90;;;;;;5104531;28;20104;-71
2021/12/17 02:57:10;;;;;;;9.25;3.92;;;8.50;99.90;;;;;;5105289;28;20059;-71
2021/12/17 02:59:37;;;;;;;23.83;4.30;;;8.70;99.90;;;;;;5106188;28;20435;-71
2021/12/17 03:02:07;;;;;;;11.60;3.22;;;8.00;99.90;;;;;;5104634;28;20035;-71
2021/12/17 03:04:35;;;;;;;5.32;3.22;;;8.60;99.90;;;;;;5105253;28;20036;-71
2021/12/17 03:07:02;;;;;;;8.48;3.95;;;8.70;99.90;;;;;;5108364;28;20040;-71
2021/12/17 03:10:14;;;;;;;6.47;3.38;;;8.40;99.90;;;;;;5107802;28;20035;-71
2021/12/17 03:12:20;;;;;;;8.05;4.20;;;8.80;99.90;;;;;;5100082;28;20444;-71
2021/12/17 03:14:57;;;;;;;8.43;4.05;;;9.10;99.90;;;;;;5108330;28;20063;-71
2021/12/17 03:25:29;;;;;;;9.20;4.38;;;8.40;99.90;;;;;;5107252;28;20048;-71
2021/12/17 03:27:54;;;;;;;7.10;3.88;;;9.40;99.90;;;;;;5094144;28;20039;-71
2021/12/17 03:30:20;;;;;;;8.43;3.88;;;8.40;99.90;;;;;;5108407;28;20395;-71
2021/12/17 03:32:46;;;;;;;6.65;3.90;;;9.10;99.90;;;;;;5103923;28;20343;-71
2021/12/17 03:35:11;;;;;;;7.13;3.97;;;8.80;99.90;;;;;;5106615;28;20051;-71
2021/12/17 03:37:37;;;;;;;5.80;3.58;;;8.90;99.90;;;;;;5105845;28;20044;-71
2021/12/17 03:40:04;;;;;;;8.15;4.53;;;8.40;99.90;;;;;;5107037;28;20368;-71
2021/12/17 03:42:29;;;;;;;5.47;3.88;;;8.40;99.90;;;;;;5106914;28;20046;-71
2021/12/17 03:44:55;;;;;;;6.95;3.67;;;9.50;99.90;;;;;;5107375;28;20531;-71
2021/12/17 03:47:21;;;;;;;7.28;3.47;;;8.70;99.90;;;;;;5108748;28;20035;-71
2021/12/17 03:49:48;;;;;;;6.90;3.65;;;8.50;99.90;;;;;;5109748;28;20047;-72
2021/12/17 03:52:16;;;;;;;5.78;3.58;;;8.40;99.90;;;;;;5108387;28;20039;-71
2021/12/17 03:54:42;;;;;;;5.90;3.10;;;9.30;99.90;;;;;;5094191;28;20293;-71
2021/12/17 03:57:11;;;;;;;6.05;3.45;;;9.60;99.90;;;;;;5108543;28;20048;-71
2021/12/17 03:59:37;;;;;;;5.40;3.25;;;9.40;99.90;;;;;;5108371;27;20113;-71
2021/12/17 04:02:04;;;;;;;6.65;3.30;;;9.50;99.90;;;;;;5108573;28;20036;-71
2021/12/17 04:04:29;;;;;;;5.18;3.45;;;9.60;99.90;;;;;;5106864;28;20043;-71
2021/12/17 04:06:55;;;;;;;7.18;3.30;;;9.40;99.90;;;;;;5091244;28;20043;-71
2021/12/17 04:09:22;;;;;;;6.25;3.50;;;9.50;99.90;;;;;;5103886;28;20067;-71
2021/12/17 04:11:48;;;;;;;5.15;3.83;;;8.80;99.90;;;;;;5109396;28;20048;-70
2021/12/17 04:14:14;;;;;;;6.93;4.40;;;8.90;99.90;;;;;;5109372;28;20097;-71
2021/12/17 04:16:40;;;;;;;8.30;4.10;;;9.50;99.90;;;;;;5107859;28;20126;-71
2021/12/17 04:19:06;;;;;;;5.95;3.88;;;9.80;99.90;;;;;;5109286;28;20100;-71
2021/12/17 04:21:32;;;;;;;7.72;4.60;;;9.70;99.90;;;;;;5105973;28;20040;-71
2021/12/17 04:23:57;;;;;;;5.45;3.88;;;8.70;99.90;;;;;;5087372;28;20531;-71
2021/12/17 04:26:25;;;;;;;6.13;3.88;;;8.60;99.90;;;;;;5107651;28;20101;-70
2021/12/17 04:28:53;;;;;;;6.60;4.13;;;9.60;99.90;;;;;;5110080;28;20093;-71
2021/12/17 04:31:23;;;;;;;8.25;4.07;;;9.70;99.90;;;;;;5104620;27;20708;-70
2021/12/17 04:33:48;;;;;;;6.90;3.95;;;9.60;99.90;;;;;;5103175;27;20089;-71
2021/12/17 04:36:21;;;;;;;5.97;3.85;;;9.60;99.90;;;;;;5106179;28;20032;-71
2021/12/17 04:38:47;;;;;;;7.28;4.05;;;9.50;99.90;;;;;;5106951;28;20505;-71
2021/12/17 04:41:39;;;;;;;5.50;3.47;;;8.70;99.90;;;;;;5109537;28;20035;-71
2021/12/17 04:44:11;;;;;;;5.55;3.50;;;9.10;99.90;;;;;;5106892;28;20047;-71
2021/12/17 04:59:44;;;;;;;9.57;4.03;;;8.80;99.90;;;;;;5109140;28;20047;-71
2021/12/17 05:02:10;;;;;;;5.05;3.22;;;9.10;99.90;;;;;;5105728;28;20447;-71
2021/12/17 05:04:37;;;;;;;4.85;3.28;;;9.90;99.90;;;;;;5111341;28;20050;-71
2021/12/17 05:07:06;;;;;;;4.13;3.17;;;9.90;99.90;;;;;;5108146;28;20069;-71
2021/12/17 05:09:44;;;;;;;5.55;3.67;;;8.80;99.90;;;;;;5108659;28;20051;-71
2021/12/17 05:20:45;;;;;;;6.57;3.70;;;9.80;99.90;;;;;;5089924;28;20043;-71
2021/12/17 05:23:11;;;;;;;6.43;4.07;;;8.70;99.90;;;;;;5110713;28;20047;-71
2021/12/17 05:25:36;;;;;;;8.38;4.65;;;9.00;99.90;;;;;;5091466;28;20429;-71
2021/12/17 05:28:02;;;;;;;7.75;5.32;;;9.50;99.90;;;;;;5093300;28;20047;-71
2021/12/17 05:30:33;;;;;;;7.22;4.43;;;9.60;99.90;;;;;;5108826;28;20044;-71
2021/12/17 05:33:01;;;;;;;9.68;4.53;;;9.90;99.90;;;;;;5110827;28;20388;-71
2021/12/17 05:35:27;;;;;;;8.07;5.30;;;8.80;99.90;;;;;;5106990;28;20096;-71
2021/12/17 05:37:54;;;;;;;7.53;4.40;;;9.40;99.90;;;;;;5108215;28;20055;-71
2021/12/17 05:40:20;;;;;;;8.18;4.65;;;9.00;99.90;;;;;;5107811;28;20119;-71
2021/12/17 05:42:48;;;;;;;9.93;5.55;;;9.30;99.90;;;;;;5093752;28;20047;-71
2021/12/17 05:45:22;;;;;;;10.90;5.53;;;9.00;99.90;;;;;;5108938;28;20039;-72
2021/12/17 05:47:49;;;;;;;8.48;5.28;;;9.90;99.90;;;;;;5094374;28;20059;-71
2021/12/17 05:50:15;;;;;;;10.23;5.88;;;8.80;99.90;;;;;;5108403;28;20498;-71
2021/12/17 05:52:40;;;;;;;9.73;5.25;;;8.70;99.90;;;;;;5106348;28;20902;-71
2021/12/17 05:55:07;;;;;;;10.15;5.38;;;9.90;99.90;;;;;;5109185;28;20047;-72
2021/12/17 05:57:33;;;;;;;9.18;5.57;;;9.40;99.90;;;;;;5105935;28;20055;-71
2021/12/17 05:59:58;;;;;;;9.13;5.43;;;9.90;99.90;;;;;;5087368;28;20486;-71
2021/12/17 06:02:24;;;;;;;8.05;5.32;;;9.70;99.90;;;;;;5110298;28;20546;-72
2021/12/17 06:04:50;;;;;;;11.00;5.88;;;8.90;99.90;;;;;;5108504;28;20158;-71
2021/12/17 06:07:29;;;;;;;11.00;5.68;;;9.70;99.90;;;;;;5108687;28;20047;-71
2021/12/17 06:10:01;;;;;;;9.73;5.95;;;9.50;99.90;;;;;;5109914;28;20044;-71
2021/12/17 06:12:27;;;;;;;10.75;5.63;;;9.40;99.90;;;;;;5109196;28;20051;-71
2021/12/17 06:14:53;;;;;;;14.88;6.28;;;8.80;99.90;;;;;;5107907;28;20046;-71
2021/12/17 06:17:19;;;;;;;9.50;5.65;;;9.20;99.90;;;;;;5110269;28;20043;-71
2021/12/17 06:19:45;;;;;;;12.40;7.03;;;8.60;99.90;;;;;;5106317;28;20036;-71
2021/12/17 06:22:11;;;;;;;11.55;6.53;;;9.00;99.90;;;;;;5092925;28;20044;-71
2021/12/17 06:24:37;;;;;;;12.55;6.43;;;9.70;99.90;;;;;;5108274;28;20046;-72
2021/12/17 06:27:03;;;;;;;11.88;7.22;;;8.70;99.90;;;;;;5109989;28;20051;-71
2021/12/17 06:29:29;;;;;;;13.07;7.05;;;8.80;99.90;;;;;;5090477;28;20039;-71
2021/12/17 06:31:54;;;;;;;13.07;7.05;;;8.90;99.90;;;;;;5087038;28;20054;-71
2021/12/17 06:34:20;;;;;;;12.57;6.55;;;8.80;99.90;;;;;;5108386;28;20040;-71
2021/12/17 06:36:46;;;;;;;12.68;6.43;;;9.20;99.90;;;;;;5108809;28;20055;-71
2021/12/17 06:39:12;;;;;;;13.20;7.13;;;8.80;99.90;;;;;;5106753;28;20120;-71
2021/12/17 06:41:38;;;;;;;10.65;7.03;;;9.30;99.90;;;;;;5109773;28;20046;-71
2021/12/17 06:44:06;;;;;;;10.90;7.15;;;9.10;99.90;;;;;;5092959;28;20043;-71
2021/12/17 06:46:51;;;;;;;13.82;7.43;;;8.60;99.90;;;;;;5106721;28;20051;-70
2021/12/17 07:10:44;;;;;;;15.55;7.13;;;8.30;99.90;;;;;;5107203;28;21034;-72
2021/12/17 07:39:49;;;;;;;19.30;8.75;;;9.70;99.90;;;;;;5102085;28;20142;-72
2021/12/17 07:42:15;;;;;;;15.80;8.77;;;8.50;99.90;;;;;;5108448;28;20044;-72
2021/12/17 07:44:40;;;;;;;18.48;8.13;;;9.30;99.90;;;;;;5092119;28;20047;-71
2021/12/17 07:47:06;;;;;;;17.92;8.23;;;9.00;99.90;;;;;;5110463;28;20044;-71
2021/12/17 07:49:32;;;;;;;18.20;8.13;;;8.60;99.90;;;;;;5107281;28;20043;-71
2021/12/17 07:51:57;;;;;;;14.10;8.07;;;9.20;99.90;;;;;;5105244;28;20099;-71
2021/12/17 07:54:23;;;;;;;13.60;7.45;;;9.60;99.90;;;;;;5107257;28;20036;-72
2021/12/17 07:56:49;;;;;;;18.75;8.93;;;9.30;99.90;;;;;;5109172;28;20043;-73
2021/12/17 07:59:18;;;;;;;17.15;8.35;;;9.70;99.90;;;;;;5111049;28;20054;-71
2021/12/17 08:01:43;;;;;;;18.75;9.23;;;8.60;99.90;;;;;;5109914;28;20036;-73
2021/12/17 08:04:10;;;;;;;21.10;8.88;;;9.00;99.90;;;;;;5105587;28;20035;-71
2021/12/17 08:06:37;;;;;;;18.83;8.07;;;9.30;99.90;;;;;;5098696;28;20047;-72
2021/12/17 08:09:04;;;;;;;18.88;9.50;;;9.70;99.90;;;;;;5109400;28;20096;-72
2021/12/17 08:11:36;;;;;;;18.27;8.68;;;8.90;99.90;;;;;;5108858;28;20058;-71
2021/12/17 08:14:12;;;;;;;18.73;8.93;;;9.10;99.90;;;;;;5113399;28;20490;-71
2021/12/17 08:16:46;;;;;;;17.02;8.27;;;10.00;99.90;;;;;;5109588;28;20048;-71
2021/12/17 08:24:51;;;;;;;18.20;9.05;;;10.00;99.90;;;;;;5108098;28;20039;-71
2021/12/17 08:32:18;;;;;;;23.95;9.77;;;8.80;99.90;;;;;;5110631;28;20477;-72
2021/12/17 08:34:45;;;;;;;16.70;8.48;;;8.80;99.90;;;;;;5077899;28;20039;-71
2021/12/17 08:37:11;;;;;;;25.98;10.25;;;8.90;99.90;;;;;;5108266;28;20074;-72
2021/12/17 08:39:38;;;;;;;21.13;10.27;;;9.40;99.90;;;;;;5092886;28;20072;-72
2021/12/17 08:42:05;;;;;;;20.75;9.45;;;9.70;99.90;;;;;;5102583;28;20058;-72
2021/12/17 08:44:31;;;;;;;18.85;9.55;;;8.90;99.90;;;;;;5100314;28;20040;-72
2021/12/17 08:46:57;;;;;;;20.15;9.90;;;9.80;99.90;;;;;;5111298;28;20053;-72
2021/12/17 08:49:23;;;;;;;19.90;9.63;;;9.00;99.90;;;;;;5111358;28;20044;-71
2021/12/17 08:51:49;;;;;;;17.95;9.77;;;9.40;99.90;;;;;;5110173;28;20108;-72
2021/12/17 08:54:14;;;;;;;19.60;9.45;;;9.80;99.90;;;;;;5110704;28;20473;-72
2021/12/17 08:56:49;;;;;;;21.67;8.98;;;9.80;99.90;;;;;;5110747;28;20036;-72
2021/12/17 08:59:16;;;;;;;18.27;9.43;;;9.40;99.90;;;;;;5111791;28;20372;-72
2021/12/17 09:01:46;;;;;;;18.77;8.98;;;9.40;99.90;;;;;;5110551;28;20131;-71
2021/12/17 09:04:13;;;;;;;18.58;9.38;;;10.30;99.90;;;;;;5110898;28;20039;-72
2021/12/17 09:06:39;;;;;;;17.33;8.85;;;9.00;99.90;;;;;;5110847;28;20044;-72
2021/12/17 09:09:05;;;;;;;18.65;9.75;;;10.20;99.90;;;;;;5111179;28;20048;-73
2021/12/17 09:11:32;;;;;;;18.95;9.00;;;10.00;99.90;;;;;;5093735;28;20505;-72
2021/12/17 09:14:00;;;;;;;22.00;9.10;;;9.30;99.90;;;;;;5111691;28;20043;-72
2021/12/17 09:16:26;;;;;;;17.95;8.82;;;9.10;99.90;;;;;;5111253;28;20047;-71
2021/12/17 09:18:54;;;;;;;19.35;8.32;;;9.20;99.90;;;;;;5093753;28;20039;-72
2021/12/17 09:21:20;;;;;;;25.50;9.38;;;9.60;99.90;;;;;;5109899;28;20055;-72
2021/12/17 09:23:46;;;;;;;19.58;8.50;;;9.80;99.90;;;;;;5110438;28;20407;-71
2021/12/17 09:26:15;;;;;;;18.33;9.05;;;10.40;99.90;;;;;;5112045;28;20089;-71
2021/12/17 09:28:41;;;;;;;17.05;8.10;;;9.10;99.90;;;;;;5110942;28;20052;-71
2021/12/17 09:31:11;;;;;;;19.10;8.38;;;10.00;99.90;;;;;;5109228;28;20065;-72
2021/12/17 09:33:38;;;;;;;17.38;9.00;;;10.40;99.90;;;;;;5110769;28;20050;-71
2021/12/17 09:36:05;;;;;;;19.60;8.25;;;10.40;99.90;;;;;;5106094;28;20043;-74
2021/12/17 09:38:30;;;;;;;20.02;8.20;;;9.30;99.90;;;;;;5088525;28;20047;-73
2021/12/17 09:40:57;;;;;;;16.27;7.88;;;10.20;99.90;;;;;;5092366;28;20463;-72
2021/12/17 09:43:24;;;;;;;15.40;8.35;;;10.10;99.90;;;;;;5108124;28;20036;-72
2021/12/17 09:45:49;;;;;;;16.67;8.15;;;10.20;99.90;;;;;;5110618;28;20092;-72
2021/12/17 09:48:18;;;;;;;17.40;8.73;;;9.20;99.90;;;;;;5111558;28;20433;-72
2021/12/17 09:50:44;;;;;;;17.42;7.85;;;10.30;99.90;;;;;;5111957;28;20123;-71
2021/12/17 09:53:09;;;;;;;14.43;7.22;;;10.40;99.90;;;;;;5110800;28;20118;-71
2021/12/17 09:55:35;;;;;;;14.45;8.57;;;9.90;99.90;;;;;;5111317;28;20452;-72
2021/12/17 09:58:01;;;;;;;16.30;7.88;;;9.70;99.90;;;;;;5109633;28;20063;-73
2021/12/17 10:00:28;;;;;;;15.63;8.05;;;10.30;99.90;;;;;;5110904;28;20349;-71
2021/12/17 10:02:54;;;;;;;16.23;7.60;;;10.40;99.90;;;;;;5110516;28;20067;-72
2021/12/17 10:05:22;;;;;;;14.77;7.40;;;10.50;99.90;;;;;;5093960;28;20119;-72
2021/12/17 10:07:56;;;;;;;18.02;8.82;;;9.40;99.90;;;;;;5110634;28;20483;-72
2021/12/17 10:10:35;;;;;;;14.80;7.78;;;9.60;99.90;;;;;;5111434;28;20066;-71
2021/12/17 10:13:22;;;;;;;14.50;7.53;;;9.30;99.90;;;;;;5110345;28;20107;-72
2021/12/17 10:15:51;;;;;;;14.07;8.05;;;9.50;99.90;;;;;;5111036;28;20100;-72
2021/12/17 10:18:18;;;;;;;19.25;8.40;;;9.70;99.90;;;;;;5110130;28;20042;-72
2021/12/17 10:20:58;;;;;;;14.98;6.80;;;10.70;99.90;;;;;;5111038;28;20047;-72
2021/12/17 10:23:26;;;;;;;14.38;6.32;;;10.60;99.90;;;;;;5112363;28;20077;-72
2021/12/17 10:25:53;;;;;;;15.80;6.63;;;10.80;99.90;;;;;;5111286;28;20050;-73
2021/12/17 10:28:19;;;;;;;14.85;7.13;;;10.90;99.90;;;;;;5110633;28;20043;-72
2021/12/17 10:30:48;;;;;;;15.23;7.05;;;9.50;99.90;;;;;;5110893;28;20040;-72
2021/12/17 10:33:18;;;;;;;12.02;6.80;;;9.90;99.90;;;;;;5110131;28;20040;-71
2021/12/17 10:35:47;;;;;;;12.63;6.65;;;10.90;99.90;;;;;;5110563;28;20095;-72
2021/12/17 10:38:16;;;;;;;15.13;6.72;;;10.20;99.90;;;;;;5109758;28;20383;-71
2021/12/17 10:41:14;;;;;;;13.35;6.93;;;11.00;99.90;;;;;;5110955;28;20062;-72
2021/12/17 10:43:48;;;;;;;11.25;5.93;;;10.30;99.90;;;;;;5110165;28;20043;-72
2021/12/17 10:46:31;;;;;;;14.85;6.63;;;9.60;99.90;;;;;;5110636;28;20090;-72
2021/12/17 10:49:13;;;;;;;11.68;6.53;;;10.70;99.90;;;;;;5093278;28;20353;-72
2021/12/17 10:54:16;;;;;;;8.70;6.03;;;10.30;99.90;;;;;;5108902;28;20150;-73
2021/12/17 10:56:47;;;;;;;9.15;6.18;;;11.00;99.90;;;;;;5110146;28;20349;-72
2021/12/17 10:59:16;;;;;;;10.65;5.65;;;10.20;99.90;;;;;;5105619;28;20047;-72
2021/12/17 11:01:51;;;;;;;9.48;5.90;;;10.10;99.90;;;;;;5092779;28;20135;-72
2021/12/17 11:04:23;;;;;;;;;;;9.70;99.90;;;;;;5083791;28;20040;-72
2021/12/17 11:07:20;;;;;;;7.88;5.43;;;10.60;99.90;;;;;;5084232;28;19947;-73
2021/12/17 11:09:57;;;;;;;10.70;5.53;;;11.20;99.90;;;;;;5090894;28;20138;-73
2021/12/17 11:12:27;;;;;;;8.73;5.45;;;9.70;99.90;;;;;;5103703;28;20495;-72
2021/12/17 11:15:06;;;;;;;14.55;5.68;;;10.00;99.90;;;;;;5104793;28;20043;-73
2021/12/17 11:17:32;;;;;;;9.57;5.15;;;11.10;99.90;;;;;;5103475;28;20108;-72
2021/12/17 11:20:20;;;;;;;9.13;5.28;;;10.80;99.90;;;;;;5102993;28;20052;-72
2021/12/17 11:22:48;;;;;;;9.60;5.47;;;11.30;99.90;;;;;;5102352;28;20051;-72
2021/12/17 11:25:16;;;;;;;9.80;4.97;;;10.60;99.90;;;;;;5102622;28;20126;-72
2021/12/17 11:27:42;;;;;;;8.98;5.15;;;9.80;99.90;;;;;;5102500;28;20391;-73
2021/12/17 11:30:21;;;;;;;6.63;4.72;;;11.10;99.90;;;;;;5106888;28;20051;-73
2021/12/17 11:32:48;;;;;;;8.40;5.25;;;11.30;99.90;;;;;;5106795;28;20131;-73
2021/12/17 11:35:17;;;;;;;8.38;4.25;;;10.00;99.90;;;;;;5106583;28;20035;-72
2021/12/17 11:37:46;;;;;;;6.85;4.18;;;9.80;99.90;;;;;;5107267;28;20501;-74
2021/12/17 11:40:34;;;;;;;4.90;3.67;;;10.10;99.90;;;;;;5106097;28;20051;-74
2021/12/17 11:43:36;;;;;;;7.45;3.67;;;11.30;99.90;;;;;;5099137;28;20515;-75
2021/12/17 11:46:13;;;;;;;6.85;3.65;;;9.80;99.90;;;;;;5063034;28;20105;-74
2021/12/17 11:48:50;;;;;;;6.05;3.95;;;9.90;99.90;;;;;;5107800;28;20050;-75
2021/12/17 11:51:18;;;;;;;4.22;2.85;;;10.90;99.90;;;;;;5106465;28;20043;-73
2021/12/17 11:54:07;;;;;;;5.57;3.30;;;11.10;99.90;;;;;;5106032;28;20039;-72
2021/12/17 11:56:44;;;;;;;8.95;3.30;;;9.70;99.90;;;;;;5105867;28;20441;-74
2021/12/17 11:59:25;;;;;;;5.38;3.38;;;11.00;99.90;;;;;;5106386;28;20575;-74
2021/12/17 12:02:05;;;;;;;3.67;2.58;;;10.10;99.90;;;;;;5106234;28;20211;-72
2021/12/17 12:04:34;;;;;;;4.13;2.92;;;11.10;99.90;;;;;;5106437;28;20122;-74
2021/12/17 12:07:01;;;;;;;4.03;2.70;;;10.20;99.90;;;;;;5106263;28;20411;-73
2021/12/17 12:09:56;;;;;;;4.30;3.33;;;11.30;99.90;;;;;;5106394;28;20047;-75
2021/12/17 12:12:43;;;;;;;;;;;10.00;99.90;;;;;;5106285;28;20093;-74
2021/12/17 12:15:24;;;;;;;4.40;3.22;;;11.20;99.90;;;;;;5074764;28;19927;-72
2021/12/17 12:18:07;;;;;;;3.35;2.80;;;9.90;99.90;;;;;;5068876;28;20072;-74
2021/12/17 12:20:45;;;;;;;4.65;3.28;;;11.30;99.90;;;;;;5085969;28;20102;-74
2021/12/17 12:23:36;;;;;;;3.67;2.85;;;11.20;99.90;;;;;;5106830;28;20067;-72
2021/12/17 12:26:07;;;;;;;5.78;3.30;;;11.30;99.90;;;;;;5088717;28;20044;-71
2021/12/17 12:28:48;;;;;;;5.90;3.00;;;9.80;99.90;;;;;;5106794;28;20832;-72
2021/12/17 12:31:17;;;;;;;5.13;3.50;;;11.20;99.90;;;;;;5105659;28;20141;-72
2021/12/17 12:34:01;;;;;;;5.55;3.45;;;11.20;99.90;;;;;;5107793;28;20118;-74
2021/12/17 12:36:55;;;;;;;4.73;3.63;;;10.70;99.90;;;;;;5101679;28;20047;-71
2021/12/17 12:39:47;;;;;;;14.75;4.25;;;10.30;99.90;;;;;;5105636;28;20043;-73
2021/12/17 12:42:23;;;;;;;4.50;3.53;;;11.00;99.90;;;;;;5094990;28;20369;-73
2021/12/17 12:44:49;;;;;;;6.40;3.47;;;10.80;99.90;;;;;;5088591;28;20043;-74
2021/12/17 12:47:24;;;;;;;6.25;3.58;;;11.20;99.90;;;;;;5088797;28;20043;-73
2021/12/17 12:50:06;;;;;;;4.53;3.58;;;10.50;99.90;;;;;;5106288;28;20050;-72
2021/12/17 12:52:41;;;;;;;6.00;3.70;;;11.10;99.90;;;;;;5105819;28;20055;-74
2021/12/17 12:55:16;;;;;;;5.10;3.78;;;11.20;99.90;;;;;;5105175;28;20123;-72
2021/12/17 12:57:51;;;;;;;7.43;4.10;;;10.90;99.90;;;;;;5106026;28;20411;-72
2021/12/17 13:00:50;;;;;;;5.55;4.10;;;11.20;99.90;;;;;;5107263;28;20054;-73
2021/12/17 13:03:18;;;;;;;6.38;4.10;;;11.20;99.90;;;;;;5107490;28;20051;-76
2021/12/17 13:05:47;;;;;;;6.07;4.18;;;10.20;99.90;;;;;;5106947;28;20055;-75
2021/12/17 13:08:15;;;;;;;6.50;4.38;;;10.00;99.90;;;;;;5104872;28;20039;-73
2021/12/17 13:10:45;;;;;;;5.95;4.50;;;11.10;99.90;;;;;;5104672;28;20043;-75
2021/12/17 13:13:20;;;;;;;6.00;4.25;;;11.10;99.90;;;;;;5103539;28;20076;-74
2021/12/17 13:23:56;;;;;;;5.78;4.57;;;11.00;99.90;;;;;;5103184;28;20047;-75
2021/12/17 13:26:24;;;;;;;6.57;4.63;;;11.10;99.90;;;;;;5103147;28;20123;-75
2021/12/17 13:29:05;;;;;;;6.53;5.10;;;11.10;99.90;;;;;;5104277;28;20074;-72
2021/12/17 13:31:32;;;;;;;8.13;4.18;;;11.00;99.90;;;;;;5102545;28;20477;-75
2021/12/17 13:33:58;;;;;;;6.65;4.78;;;11.10;99.90;;;;;;5097343;28;20036;-74
2021/12/17 13:36:24;;;;;;;8.52;4.43;;;10.10;99.90;;;;;;5084192;28;20494;-73
2021/12/17 13:39:01;;;;;;;5.35;4.32;;;11.00;99.90;;;;;;5081527;28;20459;-75
2021/12/17 13:41:40;;;;;;;8.52;4.53;;;10.10;99.90;;;;;;5099666;28;20163;-73
2021/12/17 13:44:23;;;;;;;7.18;4.97;;;11.00;99.90;;;;;;5102611;28;20442;-73
2021/12/17 13:46:49;;;;;;;7.55;4.80;;;10.30;99.90;;;;;;5101633;28;20047;-74
2021/12/17 13:49:14;;;;;;;6.25;4.78;;;10.40;99.90;;;;;;5103816;28;20510;-72
2021/12/17 13:51:40;;;;;;;8.55;4.55;;;10.50;99.90;;;;;;5103094;28;20115;-72
2021/12/17 13:54:06;;;;;;;6.28;3.95;;;10.10;99.90;;;;;;5103201;28;20059;-75
2021/12/17 13:56:31;;;;;;;5.75;4.57;;;10.30;99.90;;;;;;5103992;28;20051;-73
2021/12/17 13:59:01;;;;;;;8.55;4.50;;;10.00;99.90;;;;;;5087234;28;20060;-74
2021/12/17 14:01:27;;;;;;;7.15;4.40;;;10.20;99.90;;;;;;5103539;28;20780;-76
2021/12/17 14:03:53;;;;;;;4.95;4.13;;;10.10;99.90;;;;;;5103672;28;20067;-75
2021/12/17 14:06:25;;;;;;;7.95;4.47;;;10.30;99.90;;;;;;5086520;28;20058;-74
2021/12/17 14:08:51;;;;;;;6.30;4.30;;;10.00;99.90;;;;;;5104578;28;20043;-74
2021/12/17 14:11:24;;;;;;;5.95;4.60;;;10.30;99.90;;;;;;5104219;28;20100;-74
2021/12/17 14:13:50;;;;;;;8.05;4.47;;;10.90;99.90;;;;;;5104619;28;20054;-73
2021/12/17 14:16:33;;;;;;;5.90;4.50;;;9.70;99.90;;;;;;5086790;28;20044;-73
2021/12/17 14:19:00;;;;;;;7.10;4.78;;;10.80;99.90;;;;;;5105310;28;20154;-72
2021/12/17 14:21:28;;;;;;;5.55;4.53;;;10.10;99.90;;;;;;5103710;28;20035;-73
2021/12/17 14:23:54;;;;;;;6.88;3.95;;;10.10;99.90;;;;;;5087135;28;20047;-73
2021/12/17 14:26:30;;;;;;;6.22;4.18;;;10.20;99.90;;;;;;5102394;28;20043;-74
2021/12/17 14:29:11;;;;;;;6.25;4.68;;;10.20;99.90;;;;;;5102974;28;20130;-73
2021/12/17 14:31:37;;;;;;;6.82;4.75;;;11.00;99.90;;;;;;5101932;28;20047;-73
2021/12/17 14:34:03;;;;;;;6.50;4.32;;;10.20;99.90;;;;;;5102863;28;20040;-74
2021/12/17 14:36:39;;;;;;;5.72;4.47;;;10.40;99.90;;;;;;5102424;28;20051;-75
2021/12/17 14:39:10;;;;;;;6.55;4.78;;;10.90;99.90;;;;;;5103778;28;20039;-74
2021/12/17 14:41:59;;;;;;;6.15;4.47;;;10.40;99.90;;;;;;5103021;28;20046;-73
2021/12/17 14:47:30;;;;;;;6.95;4.75;;;10.50;99.90;;;;;;5103436;28;20087;-75
2021/12/17 15:01:29;;;;;;;6.50;5.13;;;10.40;99.90;;;;;;5103299;28;20043;-73
2021/12/17 15:03:41;;;;;;;7.43;5.32;;;9.80;99.90;;;;;;5097569;28;20391;-73
2021/12/17 15:06:18;;;;;;;8.50;5.47;;;9.90;99.90;;;;;;5105948;28;20043;-76
2021/12/17 15:08:44;;;;;;;10.38;5.60;;;10.20;99.90;;;;;;5106536;28;20044;-74
2021/12/17 15:11:30;;;;;;;7.97;5.25;;;10.00;99.90;;;;;;5108364;28;20122;-74
2021/12/17 15:13:56;;;;;;;10.05;5.82;;;10.50;99.90;;;;;;5107508;28;20039;-73
2021/12/17 15:16:22;;;;;;;7.57;5.93;;;9.70;99.90;;;;;;5106534;28;20047;-76
2021/12/17 15:18:48;;;;;;;8.57;5.15;;;10.80;99.90;;;;;;5089799;28;20048;-76
2021/12/17 15:21:14;;;;;;;7.05;5.32;;;10.80;99.90;;;;;;5106219;28;20088;-75
2021/12/17 15:23:39;;;;;;;7.28;5.20;;;10.70;99.90;;;;;;5107368;28;20059;-75
2021/12/17 15:26:05;;;;;;;8.30;5.00;;;10.70;99.90;;;;;;5106809;28;20134;-74
2021/12/17 15:28:31;;;;;;;8.35;5.07;;;9.90;99.90;;;;;;5089590;28;20040;-75
2021/12/17 15:31:02;;;;;;;6.72;5.43;;;10.70;99.90;;;;;;5106267;28;20139;-74
2021/12/17 15:33:28;;;;;;;9.07;5.90;;;9.80;99.90;;;;;;5106996;28;20039;-75
2021/12/17 15:35:55;;;;;;;6.55;5.32;;;9.60;99.90;;;;;;5107560;28;20039;-74
2021/12/17 15:38:23;;;;;;;7.72;5.50;;;9.60;99.90;;;;;;5091629;28;20043;-74
2021/12/17 15:40:50;;;;;;;6.32;5.32;;;10.60;99.90;;;;;;5111828;28;20059;-73
2021/12/17 15:43:17;;;;;;;8.52;5.20;;;10.60;99.90;;;;;;5110278;28;20055;-73
2021/12/17 15:45:46;;;;;;;6.93;5.38;;;10.10;99.90;;;;;;5089075;28;20059;-73
2021/12/17 15:48:14;;;;;;;10.32;6.20;;;9.90;99.90;;;;;;5089699;28;20078;-74
2021/12/17 15:50:40;;;;;;;8.35;6.18;;;9.80;99.90;;;;;;5106270;28;20051;-76
2021/12/17 15:53:06;;;;;;;10.05;6.22;;;10.10;99.90;;;;;;5074887;28;20109;-74
2021/12/17 15:55:32;;;;;;;38.75;7.55;;;9.70;99.90;;;;;;5106615;28;20047;-73
2021/12/17 15:58:04;;;;;;;46.65;7.32;;;10.70;99.90;;;;;;5090149;28;20450;-75
2021/12/17 16:00:33;;;;;;;12.75;6.65;;;10.30;99.90;;;;;;5106179;28;20101;-73
2021/12/17 16:03:01;;;;;;;11.68;6.40;;;9.60;99.90;;;;;;5088593;28;20055;-72
2021/12/17 16:05:26;;;;;;;9.30;6.10;;;10.50;99.90;;;;;;5088502;28;20487;-73
2021/12/17 16:07:53;;;;;;;13.00;6.32;;;10.20;99.90;;;;;;5107338;28;20047;-75
2021/12/17 16:18:55;;;;;;;6.25;4.20;;;9.80;99.90;;;;;;5105645;28;20534;-74
2021/12/17 16:21:22;;;;;;;;;;;9.70;99.90;;;;;;5089279;28;20092;-72
2021/12/17 16:23:51;;;;;;;5.95;3.55;;;9.40;99.90;;;;;;5105843;28;19920;-73
2021/12/17 16:26:20;;;;;;;7.35;3.08;;;9.30;99.90;;;;;;5107091;28;20495;-73
2021/12/17 16:28:47;;;;;;;5.30;3.15;;;9.30;99.90;;;;;;5106145;28;20047;-73
2021/12/17 16:31:24;;;;;;;6.78;3.45;;;9.70;99.90;;;;;;5105887;28;20054;-72
2021/12/17 16:34:01;;;;;;;5.10;3.20;;;9.70;99.90;;;;;;5094688;28;20047;-73
2021/12/17 16:36:28;;;;;;;6.30;3.30;;;9.90;99.90;;;;;;5103189;28;20067;-72
2021/12/17 16:38:55;;;;;;;4.78;3.13;;;9.80;99.90;;;;;;5106856;28;20752;-74
2021/12/17 16:41:23;;;;;;;4.85;3.05;;;9.00;99.90;;;;;;5105161;28;20059;-73
2021/12/17 16:43:52;;;;;;;5.65;3.00;;;10.00;99.90;;;;;;5105407;28;20039;-73